sensor_id;sensor_type;location;lat;lon;timestamp;temperature;humidity
35523;DHT22;61478;50.820;4.330;2023-04-06T00:01:46;9.40;99.90
35523;DHT22;61478;50.820;4.330;2023-04-06T00:04:12;9.40;99.90
35523;DHT22;61478;50.820;4.330;2023-04-06T00:06:41;9.50;99.90
35523;DHT22;61478;50.820;4.330;2023-04-06T00:09:07;9.40;99.90
35523;DHT22;61478;50.820;4.330;2023-04-06T00:11:33;9.40;99.90
35523;DHT22;61478;50.820;4.330;2023-04-06T00:13:59;9.40;99.90
35523;DHT22;61478;50.820;4.330;2023-04-06T00:16:25;9.50;99.90
35523;DHT22;61478;50.820;4.330;2023-04-06T00:18:52;9.60;99.90
35523;DHT22;61478;50.820;4.330;2023-04-06T00:21:18;9.50;99.90
35523;DHT22;61478;50.820;4.330;2023-04-06T00:23:44;9.40;99.90
35523;DHT22;61478;50.820;4.330;2023-04-06T00:26:10;9.40;99.90
35523;DHT22;61478;50.820;4.330;2023-04-06T00:28:37;9.40;99.90
35523;DHT22;61478;50.820;4.330;2023-04-06T00:31:03;9.30;99.90
35523;DHT22;61478;50.820;4.330;2023-04-06T00:33:29;9.20;99.90
35523;DHT22;61478;50.820;4.330;2023-04-06T00:35:55;9.20;99.90
35523;DHT22;61478;50.820;4.330;2023-04-06T00:38:24;9.20;99.90
35523;DHT22;61478;50.820;4.330;2023-04-06T00:40:50;9.30;99.90
35523;DHT22;61478;50.820;4.330;2023-04-06T00:43:16;9.30;99.90
35523;DHT22;61478;50.820;4.330;2023-04-06T00:45:42;9.20;99.90
35523;DHT22;61478;50.820;4.330;2023-04-06T00:48:08;9.30;99.90
35523;DHT22;61478;50.820;4.330;2023-04-06T00:50:35;9.30;99.90
35523;DHT22;61478;50.820;4.330;2023-04-06T00:53:01;9.30;99.90
35523;DHT22;61478;50.820;4.330;2023-04-06T00:55:27;9.20;99.90
35523;DHT22;61478;50.820;4.330;2023-04-06T00:57:53;9.20;99.90
35523;DHT22;61478;50.820;4.330;2023-04-06T01:00:20;9.20;99.90
35523;DHT22;61478;50.820;4.330;2023-04-06T01:02:46;9.20;99.90
35523;DHT22;61478;50.820;4.330;2023-04-06T01:05:13;9.20;99.90
35523;DHT22;61478;50.820;4.330;2023-04-06T01:07:39;9.20;99.90
35523;DHT22;61478;50.820;4.330;2023-04-06T01:10:06;9.20;99.90
35523;DHT22;61478;50.820;4.330;2023-04-06T01:12:31;9.20;99.90
35523;DHT22;61478;50.820;4.330;2023-04-06T01:14:57;9.10;99.90
35523;DHT22;61478;50.820;4.330;2023-04-06T01:17:23;9.30;99.90
35523;DHT22;61478;50.820;4.330;2023-04-06T01:19:49;9.10;99.90
35523;DHT22;61478;50.820;4.330;2023-04-06T01:22:17;9.00;99.90
35523;DHT22;61478;50.820;4.330;2023-04-06T01:24:46;9.00;99.90
35523;DHT22;61478;50.820;4.330;2023-04-06T01:27:12;9.10;99.90
35523;DHT22;61478;50.820;4.330;2023-04-06T01:29:39;9.00;99.90
35523;DHT22;61478;50.820;4.330;2023-04-06T01:32:07;8.90;99.90
35523;DHT22;61478;50.820;4.330;2023-04-06T01:34:33;8.90;99.90
35523;DHT22;61478;50.820;4.330;2023-04-06T01:36:59;8.80;99.90
35523;DHT22;61478;50.820;4.330;2023-04-06T01:39:26;8.80;99.90
35523;DHT22;61478;50.820;4.330;2023-04-06T01:41:52;8.80;99.90
35523;DHT22;61478;50.820;4.330;2023-04-06T01:44:21;8.60;99.90
35523;DHT22;61478;50.820;4.330;2023-04-06T01:46:48;8.60;99.90
35523;DHT22;61478;50.820;4.330;2023-04-06T01:49:14;8.40;99.90
35523;DHT22;61478;50.820;4.330;2023-04-06T01:51:40;8.40;99.90
35523;DHT22;61478;50.820;4.330;2023-04-06T01:54:06;8.40;99.90
35523;DHT22;61478;50.820;4.330;2023-04-06T01:56:37;8.30;99.90
35523;DHT22;61478;50.820;4.330;2023-04-06T01:59:03;8.20;99.90
35523;DHT22;61478;50.820;4.330;2023-04-06T02:01:30;8.10;99.90
35523;DHT22;61478;50.820;4.330;2023-04-06T02:03:56;8.10;99.90
35523;DHT22;61478;50.820;4.330;2023-04-06T02:06:22;8.10;99.90
35523;DHT22;61478;50.820;4.330;2023-04-06T02:08:48;8.10;99.90
35523;DHT22;61478;50.820;4.330;2023-04-06T02:11:14;8.10;99.90
35523;DHT22;61478;50.820;4.330;2023-04-06T02:13:40;8.00;99.90
35523;DHT22;61478;50.820;4.330;2023-04-06T02:16:07;8.00;99.90
35523;DHT22;61478;50.820;4.330;2023-04-06T02:18:36;8.10;99.90
35523;DHT22;61478;50.820;4.330;2023-04-06T02:21:06;8.20;99.90
35523;DHT22;61478;50.820;4.330;2023-04-06T02:23:32;8.20;99.90
35523;DHT22;61478;50.820;4.330;2023-04-06T02:25:58;8.10;99.90
35523;DHT22;61478;50.820;4.330;2023-04-06T02:28:24;8.10;99.90
35523;DHT22;61478;50.820;4.330;2023-04-06T02:30:50;8.20;99.90
35523;DHT22;61478;50.820;4.330;2023-04-06T02:33:16;8.20;99.90
35523;DHT22;61478;50.820;4.330;2023-04-06T02:35:43;8.20;99.90
35523;DHT22;61478;50.820;4.330;2023-04-06T02:38:13;8.30;99.90
35523;DHT22;61478;50.820;4.330;2023-04-06T02:40:39;8.20;99.90
35523;DHT22;61478;50.820;4.330;2023-04-06T02:43:05;8.20;99.90
35523;DHT22;61478;50.820;4.330;2023-04-06T02:45:31;8.20;99.90
35523;DHT22;61478;50.820;4.330;2023-04-06T02:47:57;8.20;99.90
35523;DHT22;61478;50.820;4.330;2023-04-06T02:50:23;8.40;99.90
35523;DHT22;61478;50.820;4.330;2023-04-06T02:52:49;8.40;99.90
35523;DHT22;61478;50.820;4.330;2023-04-06T02:55:15;8.50;99.90
35523;DHT22;61478;50.820;4.330;2023-04-06T02:57:41;8.50;99.90
35523;DHT22;61478;50.820;4.330;2023-04-06T03:00:07;8.50;99.90
35523;DHT22;61478;50.820;4.330;2023-04-06T03:02:33;8.50;99.90
35523;DHT22;61478;50.820;4.330;2023-04-06T03:05:03;8.40;99.90
35523;DHT22;61478;50.820;4.330;2023-04-06T03:07:31;8.50;99.90
35523;DHT22;61478;50.820;4.330;2023-04-06T03:09:57;8.50;99.90
35523;DHT22;61478;50.820;4.330;2023-04-06T03:12:23;8.50;99.90
35523;DHT22;61478;50.820;4.330;2023-04-06T03:14:49;8.50;99.90
35523;DHT22;61478;50.820;4.330;2023-04-06T03:17:15;8.60;99.90
35523;DHT22;61478;50.820;4.330;2023-04-06T03:19:41;8.70;99.90
35523;DHT22;61478;50.820;4.330;2023-04-06T03:22:08;8.50;99.90
35523;DHT22;61478;50.820;4.330;2023-04-06T03:24:34;8.50;99.90
35523;DHT22;61478;50.820;4.330;2023-04-06T03:27:00;8.40;99.90
35523;DHT22;61478;50.820;4.330;2023-04-06T03:29:26;8.40;99.90
35523;DHT22;61478;50.820;4.330;2023-04-06T03:31:52;8.50;99.90
35523;DHT22;61478;50.820;4.330;2023-04-06T03:34:18;8.50;99.90
35523;DHT22;61478;50.820;4.330;2023-04-06T03:36:44;8.50;99.90
35523;DHT22;61478;50.820;4.330;2023-04-06T03:39:10;8.40;99.90
35523;DHT22;61478;50.820;4.330;2023-04-06T03:41:36;8.20;99.90
35523;DHT22;61478;50.820;4.330;2023-04-06T03:44:02;8.10;99.90
35523;DHT22;61478;50.820;4.330;2023-04-06T03:46:28;8.10;99.90
35523;DHT22;61478;50.820;4.330;2023-04-06T03:48:54;8.20;99.90
35523;DHT22;61478;50.820;4.330;2023-04-06T03:51:20;8.20;99.90
35523;DHT22;61478;50.820;4.330;2023-04-06T03:53:46;8.20;99.90
35523;DHT22;61478;50.820;4.330;2023-04-06T03:56:12;8.20;99.90
35523;DHT22;61478;50.820;4.330;2023-04-06T03:58:38;8.20;99.90
35523;DHT22;61478;50.820;4.330;2023-04-06T04:01:04;8.40;99.90
35523;DHT22;61478;50.820;4.330;2023-04-06T04:03:32;8.40;99.90
35523;DHT22;61478;50.820;4.330;2023-04-06T04:05:58;8.30;99.90
35523;DHT22;61478;50.820;4.330;2023-04-06T04:08:28;8.30;99.90
35523;DHT22;61478;50.820;4.330;2023-04-06T04:10:58;8.30;99.90
35523;DHT22;61478;50.820;4.330;2023-04-06T04:13:25;8.30;99.90
35523;DHT22;61478;50.820;4.330;2023-04-06T04:15:51;8.40;99.90
35523;DHT22;61478;50.820;4.330;2023-04-06T04:18:17;8.30;99.90
35523;DHT22;61478;50.820;4.330;2023-04-06T04:20:43;8.30;99.90
35523;DHT22;61478;50.820;4.330;2023-04-06T04:23:09;8.30;99.90
35523;DHT22;61478;50.820;4.330;2023-04-06T04:25:35;8.30;99.90
35523;DHT22;61478;50.820;4.330;2023-04-06T04:28:00;8.30;99.90
35523;DHT22;61478;50.820;4.330;2023-04-06T04:30:26;8.40;99.90
35523;DHT22;61478;50.820;4.330;2023-04-06T04:32:52;8.40;99.90
35523;DHT22;61478;50.820;4.330;2023-04-06T04:35:18;8.30;99.90
35523;DHT22;61478;50.820;4.330;2023-04-06T04:37:44;8.30;99.90
35523;DHT22;61478;50.820;4.330;2023-04-06T04:40:10;8.30;99.90
35523;DHT22;61478;50.820;4.330;2023-04-06T04:42:36;8.40;99.90
35523;DHT22;61478;50.820;4.330;2023-04-06T04:45:03;8.50;99.90
35523;DHT22;61478;50.820;4.330;2023-04-06T04:47:29;8.40;99.90
35523;DHT22;61478;50.820;4.330;2023-04-06T04:49:55;8.40;99.90
35523;DHT22;61478;50.820;4.330;2023-04-06T04:52:21;8.30;99.90
35523;DHT22;61478;50.820;4.330;2023-04-06T04:54:47;8.30;99.90
35523;DHT22;61478;50.820;4.330;2023-04-06T04:57:13;8.30;99.90
35523;DHT22;61478;50.820;4.330;2023-04-06T04:59:39;8.40;99.90
35523;DHT22;61478;50.820;4.330;2023-04-06T05:02:05;8.50;99.90
35523;DHT22;61478;50.820;4.330;2023-04-06T05:04:35;8.60;99.90
35523;DHT22;61478;50.820;4.330;2023-04-06T05:07:08;8.60;99.90
35523;DHT22;61478;50.820;4.330;2023-04-06T05:09:34;8.60;99.90
35523;DHT22;61478;50.820;4.330;2023-04-06T05:12:00;8.60;99.90
35523;DHT22;61478;50.820;4.330;2023-04-06T05:14:29;8.60;99.90
35523;DHT22;61478;50.820;4.330;2023-04-06T05:16:55;8.70;99.90
35523;DHT22;61478;50.820;4.330;2023-04-06T05:19:21;8.60;99.90
35523;DHT22;61478;50.820;4.330;2023-04-06T05:21:47;8.70;99.90
35523;DHT22;61478;50.820;4.330;2023-04-06T05:24:13;8.70;99.90
35523;DHT22;61478;50.820;4.330;2023-04-06T05:26:39;8.70;99.90
35523;DHT22;61478;50.820;4.330;2023-04-06T05:29:05;8.70;99.90
35523;DHT22;61478;50.820;4.330;2023-04-06T05:31:34;8.70;99.90
35523;DHT22;61478;50.820;4.330;2023-04-06T05:34:03;8.70;99.90
35523;DHT22;61478;50.820;4.330;2023-04-06T05:36:29;8.70;99.90
35523;DHT22;61478;50.820;4.330;2023-04-06T05:38:56;8.70;99.90
35523;DHT22;61478;50.820;4.330;2023-04-06T05:41:23;8.70;99.90
35523;DHT22;61478;50.820;4.330;2023-04-06T05:43:49;8.60;99.90
35523;DHT22;61478;50.820;4.330;2023-04-06T05:46:15;8.70;99.90
35523;DHT22;61478;50.820;4.330;2023-04-06T05:48:41;8.70;99.90
35523;DHT22;61478;50.820;4.330;2023-04-06T05:51:07;8.70;99.90
35523;DHT22;61478;50.820;4.330;2023-04-06T05:53:33;8.80;99.90
35523;DHT22;61478;50.820;4.330;2023-04-06T05:56:03;8.70;99.90
35523;DHT22;61478;50.820;4.330;2023-04-06T05:58:29;8.80;99.90
35523;DHT22;61478;50.820;4.330;2023-04-06T06:01:01;8.80;99.90
35523;DHT22;61478;50.820;4.330;2023-04-06T06:03:28;8.80;99.90
35523;DHT22;61478;50.820;4.330;2023-04-06T06:05:54;8.90;99.90
35523;DHT22;61478;50.820;4.330;2023-04-06T06:08:24;8.90;99.90
35523;DHT22;61478;50.820;4.330;2023-04-06T06:10:50;8.90;99.90
35523;DHT22;61478;50.820;4.330;2023-04-06T06:13:16;8.90;99.90
35523;DHT22;61478;50.820;4.330;2023-04-06T06:15:42;8.90;99.90
35523;DHT22;61478;50.820;4.330;2023-04-06T06:18:08;9.00;99.90
35523;DHT22;61478;50.820;4.330;2023-04-06T06:20:34;9.00;99.90
35523;DHT22;61478;50.820;4.330;2023-04-06T06:23:00;9.00;99.90
35523;DHT22;61478;50.820;4.330;2023-04-06T06:25:26;8.90;99.90
35523;DHT22;61478;50.820;4.330;2023-04-06T06:27:52;9.00;99.90
35523;DHT22;61478;50.820;4.330;2023-04-06T06:30:18;9.00;99.90
35523;DHT22;61478;50.820;4.330;2023-04-06T06:32:47;9.10;99.90
35523;DHT22;61478;50.820;4.330;2023-04-06T06:35:13;9.10;99.90
35523;DHT22;61478;50.820;4.330;2023-04-06T06:37:39;9.00;99.90
35523;DHT22;61478;50.820;4.330;2023-04-06T06:40:06;9.00;99.90
35523;DHT22;61478;50.820;4.330;2023-04-06T06:42:32;9.00;99.90
35523;DHT22;61478;50.820;4.330;2023-04-06T06:44:58;8.90;99.90
35523;DHT22;61478;50.820;4.330;2023-04-06T06:47:24;8.80;99.90
35523;DHT22;61478;50.820;4.330;2023-04-06T06:49:51;8.90;99.90
35523;DHT22;61478;50.820;4.330;2023-04-06T06:52:16;8.90;99.90
35523;DHT22;61478;50.820;4.330;2023-04-06T06:54:42;9.00;99.90
35523;DHT22;61478;50.820;4.330;2023-04-06T06:57:09;8.80;99.90
35523;DHT22;61478;50.820;4.330;2023-04-06T06:59:35;8.80;99.90
35523;DHT22;61478;50.820;4.330;2023-04-06T07:02:04;8.80;99.90
35523;DHT22;61478;50.820;4.330;2023-04-06T07:04:30;8.70;99.90
35523;DHT22;61478;50.820;4.330;2023-04-06T07:06:56;8.80;99.90
35523;DHT22;61478;50.820;4.330;2023-04-06T07:09:22;8.80;99.90
35523;DHT22;61478;50.820;4.330;2023-04-06T07:11:50;8.80;99.90
35523;DHT22;61478;50.820;4.330;2023-04-06T07:14:16;8.70;99.90
35523;DHT22;61478;50.820;4.330;2023-04-06T07:16:42;8.60;99.90
35523;DHT22;61478;50.820;4.330;2023-04-06T07:19:12;8.60;99.90
35523;DHT22;61478;50.820;4.330;2023-04-06T07:21:41;8.60;99.90
35523;DHT22;61478;50.820;4.330;2023-04-06T07:24:07;8.70;99.90
35523;DHT22;61478;50.820;4.330;2023-04-06T07:26:33;8.60;99.90
35523;DHT22;61478;50.820;4.330;2023-04-06T07:28:59;8.60;99.90
35523;DHT22;61478;50.820;4.330;2023-04-06T07:31:24;8.60;99.90
35523;DHT22;61478;50.820;4.330;2023-04-06T07:33:50;8.50;99.90
35523;DHT22;61478;50.820;4.330;2023-04-06T07:36:16;8.50;99.90
35523;DHT22;61478;50.820;4.330;2023-04-06T07:38:43;8.40;99.90
35523;DHT22;61478;50.820;4.330;2023-04-06T07:41:11;8.50;99.90
35523;DHT22;61478;50.820;4.330;2023-04-06T07:43:37;8.50;99.90
35523;DHT22;61478;50.820;4.330;2023-04-06T07:46:04;8.60;99.90
35523;DHT22;61478;50.820;4.330;2023-04-06T07:48:29;8.50;99.90
35523;DHT22;61478;50.820;4.330;2023-04-06T07:51:02;8.60;99.90
35523;DHT22;61478;50.820;4.330;2023-04-06T07:53:28;8.60;99.90
35523;DHT22;61478;50.820;4.330;2023-04-06T07:55:54;8.50;99.90
35523;DHT22;61478;50.820;4.330;2023-04-06T07:58:21;8.60;99.90
35523;DHT22;61478;50.820;4.330;2023-04-06T08:00:47;8.50;99.90
35523;DHT22;61478;50.820;4.330;2023-04-06T08:03:13;8.60;99.90
35523;DHT22;61478;50.820;4.330;2023-04-06T08:05:39;8.60;99.90
35523;DHT22;61478;50.820;4.330;2023-04-06T08:08:08;8.60;99.90
35523;DHT22;61478;50.820;4.330;2023-04-06T08:10:35;8.60;99.90
35523;DHT22;61478;50.820;4.330;2023-04-06T08:13:00;8.60;99.90
35523;DHT22;61478;50.820;4.330;2023-04-06T08:15:26;8.70;99.90
35523;DHT22;61478;50.820;4.330;2023-04-06T08:17:55;8.60;99.90
35523;DHT22;61478;50.820;4.330;2023-04-06T08:20:23;8.70;99.90
35523;DHT22;61478;50.820;4.330;2023-04-06T08:22:52;8.60;99.90
35523;DHT22;61478;50.820;4.330;2023-04-06T08:25:18;8.60;99.90
35523;DHT22;61478;50.820;4.330;2023-04-06T08:27:44;8.60;99.90
35523;DHT22;61478;50.820;4.330;2023-04-06T08:30:10;8.60;99.90
35523;DHT22;61478;50.820;4.330;2023-04-06T08:32:36;8.60;99.90
35523;DHT22;61478;50.820;4.330;2023-04-06T08:35:02;8.50;99.90
35523;DHT22;61478;50.820;4.330;2023-04-06T08:37:28;8.40;99.90
35523;DHT22;61478;50.820;4.330;2023-04-06T08:39:54;8.40;99.90
35523;DHT22;61478;50.820;4.330;2023-04-06T08:42:21;8.40;99.90
35523;DHT22;61478;50.820;4.330;2023-04-06T08:44:50;8.40;99.90
35523;DHT22;61478;50.820;4.330;2023-04-06T08:47:19;8.40;99.90
35523;DHT22;61478;50.820;4.330;2023-04-06T08:49:45;8.40;99.90
35523;DHT22;61478;50.820;4.330;2023-04-06T08:52:12;8.30;99.90
35523;DHT22;61478;50.820;4.330;2023-04-06T08:54:38;8.40;99.90
35523;DHT22;61478;50.820;4.330;2023-04-06T08:57:05;8.30;99.90
35523;DHT22;61478;50.820;4.330;2023-04-06T08:59:32;8.40;99.90
35523;DHT22;61478;50.820;4.330;2023-04-06T09:01:59;8.40;99.90
35523;DHT22;61478;50.820;4.330;2023-04-06T09:04:29;8.30;99.90
35523;DHT22;61478;50.820;4.330;2023-04-06T09:06:55;8.40;99.90
35523;DHT22;61478;50.820;4.330;2023-04-06T09:09:21;8.40;99.90
35523;DHT22;61478;50.820;4.330;2023-04-06T09:11:48;8.40;99.90
35523;DHT22;61478;50.820;4.330;2023-04-06T09:14:15;8.50;99.90
35523;DHT22;61478;50.820;4.330;2023-04-06T09:16:43;8.40;99.90
35523;DHT22;61478;50.820;4.330;2023-04-06T09:19:11;8.50;99.90
35523;DHT22;61478;50.820;4.330;2023-04-06T09:21:38;8.40;99.90
35523;DHT22;61478;50.820;4.330;2023-04-06T09:24:07;8.40;99.90
35523;DHT22;61478;50.820;4.330;2023-04-06T09:26:44;8.50;99.90
35523;DHT22;61478;50.820;4.330;2023-04-06T09:29:22;8.40;99.90
35523;DHT22;61478;50.820;4.330;2023-04-06T09:31:48;8.40;99.90
35523;DHT22;61478;50.820;4.330;2023-04-06T09:34:22;8.50;99.90
35523;DHT22;61478;50.820;4.330;2023-04-06T09:36:49;8.50;99.90
35523;DHT22;61478;50.820;4.330;2023-04-06T09:39:15;8.50;99.90
35523;DHT22;61478;50.820;4.330;2023-04-06T09:41:50;8.50;99.90
35523;DHT22;61478;50.820;4.330;2023-04-06T09:44:16;8.50;99.90
35523;DHT22;61478;50.820;4.330;2023-04-06T09:46:43;8.60;99.90
35523;DHT22;61478;50.820;4.330;2023-04-06T09:49:10;8.60;99.90
35523;DHT22;61478;50.820;4.330;2023-04-06T09:51:44;8.60;99.90
35523;DHT22;61478;50.820;4.330;2023-04-06T09:54:15;8.60;99.90
35523;DHT22;61478;50.820;4.330;2023-04-06T09:56:54;8.50;99.90
35523;DHT22;61478;50.820;4.330;2023-04-06T09:59:30;8.60;99.90
35523;DHT22;61478;50.820;4.330;2023-04-06T10:01:59;8.50;99.90
35523;DHT22;61478;50.820;4.330;2023-04-06T10:04:43;8.60;99.90
35523;DHT22;61478;50.820;4.330;2023-04-06T10:07:12;8.60;99.90
35523;DHT22;61478;50.820;4.330;2023-04-06T10:09:44;8.60;99.90
35523;DHT22;61478;50.820;4.330;2023-04-06T10:12:13;8.60;99.90
35523;DHT22;61478;50.820;4.330;2023-04-06T10:14:39;8.50;99.90
35523;DHT22;61478;50.820;4.330;2023-04-06T10:17:07;8.60;99.90
35523;DHT22;61478;50.820;4.330;2023-04-06T10:19:59;8.60;99.90
35523;DHT22;61478;50.820;4.330;2023-04-06T10:23:07;8.70;99.90
35523;DHT22;61478;50.820;4.330;2023-04-06T10:25:34;8.80;99.90
35523;DHT22;61478;50.820;4.330;2023-04-06T10:28:08;8.80;99.90
35523;DHT22;61478;50.820;4.330;2023-04-06T10:30:35;8.80;99.90
35523;DHT22;61478;50.820;4.330;2023-04-06T10:33:12;8.70;99.90
35523;DHT22;61478;50.820;4.330;2023-04-06T10:35:38;8.80;99.90
35523;DHT22;61478;50.820;4.330;2023-04-06T10:38:04;8.80;99.90
35523;DHT22;61478;50.820;4.330;2023-04-06T10:40:40;8.90;99.90
35523;DHT22;61478;50.820;4.330;2023-04-06T10:43:10;8.90;99.90
35523;DHT22;61478;50.820;4.330;2023-04-06T10:45:36;9.00;99.90
35523;DHT22;61478;50.820;4.330;2023-04-06T10:48:19;9.10;99.90
35523;DHT22;61478;50.820;4.330;2023-04-06T10:50:48;9.20;99.90
35523;DHT22;61478;50.820;4.330;2023-04-06T10:53:22;9.20;99.90
35523;DHT22;61478;50.820;4.330;2023-04-06T10:55:54;9.10;99.90
35523;DHT22;61478;50.820;4.330;2023-04-06T10:58:27;9.10;99.90
35523;DHT22;61478;50.820;4.330;2023-04-06T11:00:54;9.10;99.90
35523;DHT22;61478;50.820;4.330;2023-04-06T11:03:20;9.10;99.90
35523;DHT22;61478;50.820;4.330;2023-04-06T11:05:51;9.10;99.90
35523;DHT22;61478;50.820;4.330;2023-04-06T11:08:33;9.20;99.90
35523;DHT22;61478;50.820;4.330;2023-04-06T11:11:12;9.10;99.90
35523;DHT22;61478;50.820;4.330;2023-04-06T11:13:50;9.00;99.90
35523;DHT22;61478;50.820;4.330;2023-04-06T11:16:24;9.10;99.90
35523;DHT22;61478;50.820;4.330;2023-04-06T11:18:57;9.10;99.90
35523;DHT22;61478;50.820;4.330;2023-04-06T11:21:40;9.10;99.90
35523;DHT22;61478;50.820;4.330;2023-04-06T11:24:09;9.10;99.90
35523;DHT22;61478;50.820;4.330;2023-04-06T11:26:43;9.10;99.90
35523;DHT22;61478;50.820;4.330;2023-04-06T11:29:10;9.20;99.90
35523;DHT22;61478;50.820;4.330;2023-04-06T11:31:46;9.00;99.90
35523;DHT22;61478;50.820;4.330;2023-04-06T11:34:13;9.00;99.90
35523;DHT22;61478;50.820;4.330;2023-04-06T11:36:44;9.00;99.90
35523;DHT22;61478;50.820;4.330;2023-04-06T11:39:13;9.00;99.90
35523;DHT22;61478;50.820;4.330;2023-04-06T11:41:39;9.20;99.90
35523;DHT22;61478;50.820;4.330;2023-04-06T11:44:06;9.10;99.90
35523;DHT22;61478;50.820;4.330;2023-04-06T11:46:32;9.20;99.90
35523;DHT22;61478;50.820;4.330;2023-04-06T11:48:59;9.30;99.90
35523;DHT22;61478;50.820;4.330;2023-04-06T11:51:26;9.30;99.90
35523;DHT22;61478;50.820;4.330;2023-04-06T11:53:53;9.20;99.90
35523;DHT22;61478;50.820;4.330;2023-04-06T11:56:29;9.10;99.90
35523;DHT22;61478;50.820;4.330;2023-04-06T11:58:57;9.10;99.90
35523;DHT22;61478;50.820;4.330;2023-04-06T12:01:24;9.10;99.90
35523;DHT22;61478;50.820;4.330;2023-04-06T12:03:50;9.20;99.90
35523;DHT22;61478;50.820;4.330;2023-04-06T12:06:17;9.10;99.90
35523;DHT22;61478;50.820;4.330;2023-04-06T12:08:43;9.30;99.90
35523;DHT22;61478;50.820;4.330;2023-04-06T12:11:10;9.30;99.90
35523;DHT22;61478;50.820;4.330;2023-04-06T12:13:37;9.30;99.90
35523;DHT22;61478;50.820;4.330;2023-04-06T12:16:03;9.30;99.90
35523;DHT22;61478;50.820;4.330;2023-04-06T12:18:30;9.40;99.90
35523;DHT22;61478;50.820;4.330;2023-04-06T12:20:56;9.30;99.90
35523;DHT22;61478;50.820;4.330;2023-04-06T12:23:22;9.40;99.90
35523;DHT22;61478;50.820;4.330;2023-04-06T12:25:47;9.40;99.90
35523;DHT22;61478;50.820;4.330;2023-04-06T12:28:13;9.50;99.90
35523;DHT22;61478;50.820;4.330;2023-04-06T12:30:43;9.40;99.90
35523;DHT22;61478;50.820;4.330;2023-04-06T12:33:09;9.40;99.90
35523;DHT22;61478;50.820;4.330;2023-04-06T12:35:36;9.30;99.90
35523;DHT22;61478;50.820;4.330;2023-04-06T12:38:03;9.30;99.90
35523;DHT22;61478;50.820;4.330;2023-04-06T12:40:29;9.40;99.90
35523;DHT22;61478;50.820;4.330;2023-04-06T12:42:55;9.30;99.90
35523;DHT22;61478;50.820;4.330;2023-04-06T12:45:21;9.20;99.90
35523;DHT22;61478;50.820;4.330;2023-04-06T12:47:53;9.20;99.90
35523;DHT22;61478;50.820;4.330;2023-04-06T12:50:19;9.20;99.90
35523;DHT22;61478;50.820;4.330;2023-04-06T12:52:44;9.20;99.90
35523;DHT22;61478;50.820;4.330;2023-04-06T12:55:11;9.10;99.90
35523;DHT22;61478;50.820;4.330;2023-04-06T12:57:37;9.20;99.90
35523;DHT22;61478;50.820;4.330;2023-04-06T13:00:03;9.10;99.90
35523;DHT22;61478;50.820;4.330;2023-04-06T13:02:30;9.10;99.90
35523;DHT22;61478;50.820;4.330;2023-04-06T13:04:56;9.00;99.90
35523;DHT22;61478;50.820;4.330;2023-04-06T13:07:22;9.20;99.90
35523;DHT22;61478;50.820;4.330;2023-04-06T13:09:48;9.20;99.90
35523;DHT22;61478;50.820;4.330;2023-04-06T13:12:15;9.30;99.90
35523;DHT22;61478;50.820;4.330;2023-04-06T13:14:41;9.30;99.90
35523;DHT22;61478;50.820;4.330;2023-04-06T13:17:08;9.30;99.90
35523;DHT22;61478;50.820;4.330;2023-04-06T13:19:34;9.40;99.90
35523;DHT22;61478;50.820;4.330;2023-04-06T13:22:00;9.30;99.90
35523;DHT22;61478;50.820;4.330;2023-04-06T13:24:26;9.20;99.90
35523;DHT22;61478;50.820;4.330;2023-04-06T13:26:52;9.20;99.90
35523;DHT22;61478;50.820;4.330;2023-04-06T13:29:21;9.20;99.90
35523;DHT22;61478;50.820;4.330;2023-04-06T13:31:47;9.20;99.90
35523;DHT22;61478;50.820;4.330;2023-04-06T13:34:13;9.20;99.90
35523;DHT22;61478;50.820;4.330;2023-04-06T13:36:39;9.20;99.90
35523;DHT22;61478;50.820;4.330;2023-04-06T13:39:07;9.30;99.90
35523;DHT22;61478;50.820;4.330;2023-04-06T13:41:33;9.40;99.90
35523;DHT22;61478;50.820;4.330;2023-04-06T13:43:59;9.30;99.90
35523;DHT22;61478;50.820;4.330;2023-04-06T13:46:29;9.40;99.90
35523;DHT22;61478;50.820;4.330;2023-04-06T13:48:58;9.40;99.90
35523;DHT22;61478;50.820;4.330;2023-04-06T13:51:24;9.40;99.90
35523;DHT22;61478;50.820;4.330;2023-04-06T13:53:52;9.40;99.90
35523;DHT22;61478;50.820;4.330;2023-04-06T13:56:19;9.40;99.90
35523;DHT22;61478;50.820;4.330;2023-04-06T13:58:45;9.40;99.90
35523;DHT22;61478;50.820;4.330;2023-04-06T14:01:11;9.40;99.90
35523;DHT22;61478;50.820;4.330;2023-04-06T14:03:39;9.40;99.90
35523;DHT22;61478;50.820;4.330;2023-04-06T14:06:13;9.40;99.90
35523;DHT22;61478;50.820;4.330;2023-04-06T14:08:40;9.40;99.90
35523;DHT22;61478;50.820;4.330;2023-04-06T14:11:11;9.40;99.90
35523;DHT22;61478;50.820;4.330;2023-04-06T14:13:37;9.50;99.90
35523;DHT22;61478;50.820;4.330;2023-04-06T14:16:03;9.50;99.90
35523;DHT22;61478;50.820;4.330;2023-04-06T14:18:29;9.40;99.90
35523;DHT22;61478;50.820;4.330;2023-04-06T14:20:57;9.50;99.90
35523;DHT22;61478;50.820;4.330;2023-04-06T14:23:23;9.50;99.90
35523;DHT22;61478;50.820;4.330;2023-04-06T14:26:00;9.60;99.90
35523;DHT22;61478;50.820;4.330;2023-04-06T14:28:26;9.50;99.90
35523;DHT22;61478;50.820;4.330;2023-04-06T14:30:52;9.60;99.90
35523;DHT22;61478;50.820;4.330;2023-04-06T14:33:18;9.70;99.90
35523;DHT22;61478;50.820;4.330;2023-04-06T14:35:44;9.70;99.90
35523;DHT22;61478;50.820;4.330;2023-04-06T14:38:10;9.70;99.90
35523;DHT22;61478;50.820;4.330;2023-04-06T14:40:36;9.70;99.90
35523;DHT22;61478;50.820;4.330;2023-04-06T14:43:05;9.80;99.90
35523;DHT22;61478;50.820;4.330;2023-04-06T14:45:33;9.70;99.90
35523;DHT22;61478;50.820;4.330;2023-04-06T14:48:00;9.70;99.90
35523;DHT22;61478;50.820;4.330;2023-04-06T14:50:26;9.80;99.90
35523;DHT22;61478;50.820;4.330;2023-04-06T14:52:52;9.90;99.90
35523;DHT22;61478;50.820;4.330;2023-04-06T14:55:18;10.00;99.90
35523;DHT22;61478;50.820;4.330;2023-04-06T14:57:44;10.00;99.90
35523;DHT22;61478;50.820;4.330;2023-04-06T15:00:11;10.00;99.90
35523;DHT22;61478;50.820;4.330;2023-04-06T15:02:37;10.00;99.90
35523;DHT22;61478;50.820;4.330;2023-04-06T15:05:03;10.10;99.90
35523;DHT22;61478;50.820;4.330;2023-04-06T15:07:30;10.10;99.90
35523;DHT22;61478;50.820;4.330;2023-04-06T15:09:57;10.30;99.90
35523;DHT22;61478;50.820;4.330;2023-04-06T15:12:23;10.40;99.90
35523;DHT22;61478;50.820;4.330;2023-04-06T15:14:48;10.50;99.90
35523;DHT22;61478;50.820;4.330;2023-04-06T15:17:14;10.50;99.90
35523;DHT22;61478;50.820;4.330;2023-04-06T15:19:40;10.60;99.90
35523;DHT22;61478;50.820;4.330;2023-04-06T15:22:06;10.50;99.90
35523;DHT22;61478;50.820;4.330;2023-04-06T15:24:32;10.50;99.90
35523;DHT22;61478;50.820;4.330;2023-04-06T15:26:58;10.60;99.90
35523;DHT22;61478;50.820;4.330;2023-04-06T15:29:25;10.60;99.90
35523;DHT22;61478;50.820;4.330;2023-04-06T15:31:51;10.60;99.90
35523;DHT22;61478;50.820;4.330;2023-04-06T15:34:17;10.60;99.90
35523;DHT22;61478;50.820;4.330;2023-04-06T15:36:43;10.50;99.90
35523;DHT22;61478;50.820;4.330;2023-04-06T15:39:11;10.60;99.90
35523;DHT22;61478;50.820;4.330;2023-04-06T15:41:38;10.70;99.90
35523;DHT22;61478;50.820;4.330;2023-04-06T15:44:04;10.80;99.90
35523;DHT22;61478;50.820;4.330;2023-04-06T15:46:30;10.70;99.90